Flight Track Log - Related Links

Times and Time Zones

All times are in EDT time to prevent confusion due to time zone crossing. See the AWE1932 flight status page for this flight to view local times or setup timezone preferences in your user account.

Time Position Orientation Groundspeed Altitude Reporting Facility
EDT Latitude Longitude Course Direction KTS MPH feet Rate Location/Type
Mon 06:10:51 AM 26.6208 -81.6850 344° North 243 280 3,200  Level Miami Center
Mon 06:11:51 AM 26.6811 -81.6922 354° North 270 311 5,400 2,550 Climbing Miami Center
Mon 06:12:00 AM 26.9259 -81.7333 North  Level FlightAware Approximate
Mon 06:12:51 AM 26.7664 -81.7025 354° North 270 311 8,300  Level Miami Center
Mon 06:13:00 AM 27.0549 -81.7486 340° North  Level FlightAware Approximate
Mon 06:13:51 AM 26.8475 -81.7153 352° North 298 343 10,600  Level Miami Center
Mon 06:14:00 AM 27.1800 -81.7933 343° North  Level FlightAware Approximate
Mon 06:14:51 AM 26.9389 -81.7214 357° North 312 359 11,600  Level Miami Center
Mon 06:15:00 AM 27.3049 -81.8386 340° North  Level FlightAware Approximate
Mon 06:15:51 AM 27.0147 -81.6383 44° Northeast 322 371 13,900  Level Miami Center
Mon 06:16:00 AM 27.4303 -81.8823 344° North  Level FlightAware Approximate
Mon 06:16:51 AM 27.0867 -81.5503 47° Northeast 344 396 16,300  Level Miami Center
Mon 06:17:51 AM 27.1669 -81.4508 48° Northeast 366 421 18,400 2,000 Climbing Miami Center
Mon 06:18:51 AM 27.2364 -81.3650 48° Northeast 404 465 20,300 1,600 Climbing Miami Center
Mon 06:19:51 AM 27.3147 -81.2697 47° Northeast 409 471 21,600 1,500 Climbing Miami Center
Mon 06:20:51 AM 27.3928 -81.1700 49° Northeast 409 471 23,300 1,500 Climbing Miami Center
Mon 06:21:51 AM 27.4728 -81.0725 47° Northeast 421 484 24,600 1,300 Climbing Miami Center
Mon 06:22:51 AM 27.5553 -80.9675 48° Northeast 432 497 25,900 1,100 Climbing Miami Center
Mon 06:23:51 AM 27.6417 -80.8631 47° Northeast 437 503 26,800 1,150 Climbing Miami Center
Mon 06:24:51 AM 27.7281 -80.7533 48° Northeast 450 518 28,200 1,300 Climbing Miami Center
Mon 06:25:51 AM 27.8125 -80.6436 49° Northeast 456 525 29,400 1,450 Climbing Miami Center
Mon 06:26:51 AM 27.8967 -80.5336 49° Northeast 456 525 31,100 1,450 Climbing Miami Center
Mon 06:27:51 AM 27.9869 -80.4283 46° Northeast 461 531 32,300 1,200 Climbing Miami Center
Mon 06:28:51 AM 28.0797 -80.3114 48° Northeast 456 525 33,500 1,050 Climbing Miami Center
Mon 06:29:51 AM 28.1636 -80.2056 48° Northeast 451 519 34,400 750 Climbing Miami Center
Mon 06:30:51 AM 28.2475 -80.0997 48° Northeast 451 519 35,000 300 Climbing Miami Center
Mon 06:31:51 AM 28.3267 -80.0006 48° Northeast 451 519 35,000  Level Miami Center
Mon 06:32:51 AM 28.4083 -79.8942 49° Northeast 451 519 35,000  Level Miami Center
Mon 06:33:51 AM 28.4919 -79.7878 48° Northeast 451 519 35,000  Level Miami Center
Mon 06:34:51 AM 28.5756 -79.6767 49° Northeast 451 519 35,000  Level Miami Center
Mon 06:35:51 AM 28.6592 -79.5700 48° Northeast 451 519 35,000 -50 Level Miami Center
Mon 06:36:51 AM 28.7403 -79.4606 50° Northeast 451 519 34,900  Descending Miami Center
Mon 06:37:51 AM 28.8278 -79.3536 47° Northeast 451 519 35,000 50 Climbing Miami Center
Mon 06:38:51 AM 28.9131 -79.2464 48° Northeast 451 519 35,000  Level Miami Center
Mon 06:39:51 AM 29.0003 -79.1417 46° Northeast 451 519 35,000  Level Miami Center
Mon 06:40:51 AM 29.1117 -79.0989 19° North 421 484 35,000 -50 Level Miami Center
Mon 06:41:51 AM 29.2247 -79.0653 15° North 423 487 34,900 -50 Descending Miami Center
Mon 06:42:51 AM 29.3442 -79.0344 13° North 423 487 34,900 50 Level Miami Center
Mon 06:43:51 AM 29.4656 -79.0058 12° North 423 487 35,000 33 Climbing Miami Center
Mon 06:45:51 AM 29.6933 -78.9264 17° North 431 496 35,000  Level Jacksonville Center
Mon 06:46:51 AM 29.8111 -78.8833 18° North 431 496 35,000  Level Jacksonville Center
Mon 06:47:51 AM 29.9267 -78.8425 17° North 431 496 35,000  Level Jacksonville Center
Mon 06:48:51 AM 30.0506 -78.8039 15° North 436 502 35,000  Level Jacksonville Center
Mon 06:49:51 AM 30.1639 -78.7511 22° Northeast 443 510 35,000  Level Jacksonville Center
Mon 06:50:51 AM 30.2833 -78.7075 17° North 448 516 35,000  Level Jacksonville Center
Mon 06:51:51 AM 30.4069 -78.6586 19° North 453 521 35,000  Level Jacksonville Center
Mon 06:52:51 AM 30.5244 -78.6147 18° North 449 517 35,000  Level Jacksonville Center
Mon 06:53:51 AM 30.6442 -78.5683 18° North 449 517 35,000  Level Jacksonville Center
Mon 06:54:51 AM 30.7656 -78.5242 17° North 444 511 35,000  Level Jacksonville Center
Mon 06:55:51 AM 30.8811 -78.4778 19° North 444 511 35,000  Level Jacksonville Center
Mon 06:56:51 AM 31.0025 -78.4333 17° North 439 505 35,000 -50 Level Jacksonville Center
Mon 06:57:51 AM 31.1200 -78.3889 18° North 439 505 34,900 -50 Descending Jacksonville Center
Mon 06:58:51 AM 31.2394 -78.3419 19° North 439 505 34,900 50 Level Jacksonville Center
Mon 06:59:51 AM 31.3567 -78.2972 18° North 439 505 35,000 50 Climbing Jacksonville Center
Mon 07:00:51 AM 31.4883 -78.2397 20° North 442 509 35,000  Level Jacksonville Center
Mon 07:01:51 AM 31.6033 -78.1925 19° North 437 503 35,000 -50 Level Jacksonville Center
Mon 07:02:51 AM 31.7225 -78.1425 20° North 434 499 34,900 -600 Descending Jacksonville Center
Mon 07:03:51 AM 31.8378 -78.0950 19° North 432 497 33,800 -1,300 Descending Jacksonville Center
Mon 07:04:51 AM 31.9594 -78.0544 16° North 443 510 32,300 -1,500 Descending Jacksonville Center
Mon 07:05:51 AM 32.0808 -78.0086 18° North 443 510 30,800 -1,500 Descending Jacksonville Center
Mon 07:06:51 AM 32.2039 -77.9581 19° North 462 532 29,300 -900 Descending Jacksonville Center
Mon 07:07:51 AM 32.3147 -77.9103 20° North 456 525 29,000 -150 Descending Jacksonville Center
Mon 07:08:51 AM 32.4361 -77.8667 17° North 451 519 29,000  Level Jacksonville Center
Mon 07:09:51 AM 32.5553 -77.8181 19° North 451 519 29,000  Level Jacksonville Center
Mon 07:10:51 AM 32.6764 -77.7694 19° North 456 525 29,000  Level Jacksonville Center
Mon 07:11:51 AM 32.7978 -77.7231 18° North 456 525 29,000  Level Jacksonville Center
Mon 07:12:51 AM 32.9189 -77.6714 20° North 456 525 29,000  Level Jacksonville Center
Mon 07:13:51 AM 33.0400 -77.6247 18° North 456 525 29,000  Level Jacksonville Center
Mon 07:16:17 AM 33.3283 -77.5078 19° North 455 524 29,000  Level Washington Center
Mon 07:17:15 AM 33.4522 -77.4583 18° North 455 524 29,000  Level Washington Center
Mon 07:18:16 AM 33.5739 -77.4089 19° North 455 524 29,000  Level Washington Center
Mon 07:19:17 AM 33.6936 -77.3589 19° North 455 524 29,000  Level Washington Center
Mon 07:20:18 AM 33.8217 -77.3092 18° North 465 535 29,000  Level Washington Center
Mon 07:21:18 AM 33.9433 -77.2567 20° North 465 535 29,000  Level Washington Center
Mon 07:22:16 AM 34.0692 -77.2067 18° North 465 535 29,000  Level Washington Center
Mon 07:23:17 AM 34.1928 -77.1561 19° North 470 541 29,000  Level Washington Center
Mon 07:24:18 AM 34.3186 -77.1058 18° North 465 535 29,000  Level Washington Center
Mon 07:25:18 AM 34.4425 -77.0528 19° North 465 535 29,000  Level Washington Center
Mon 07:26:16 AM 34.5661 -76.9994 20° North 470 541 29,000  Level Washington Center
Mon 07:27:17 AM 34.6900 -76.9486 19° North 470 541 29,000  Level Washington Center
Mon 07:28:17 AM 34.8136 -76.8950 20° North 470 541 29,000  Level Washington Center
Mon 07:29:18 AM 34.9394 -76.8436 19° North 470 541 29,000  Level Washington Center
Mon 07:30:18 AM 35.0631 -76.7897 20° North 470 541 29,000  Level Washington Center
Mon 07:31:16 AM 35.1867 -76.7358 20° North 464 534 29,000  Level Washington Center
Mon 07:32:17 AM 35.3250 -76.6767 19° North 464 534 29,000  Level Washington Center
Mon 07:33:17 AM 35.4442 -76.6222 20° North 472 543 29,000  Level Washington Center
Mon 07:34:17 AM 35.5700 -76.5725 18° North 467 537 29,000  Level Washington Center
Mon 07:35:17 AM 35.6933 -76.5153 21° North 467 537 29,000  Level Washington Center
Mon 07:36:18 AM 35.8192 -76.4606 19° North 467 537 29,000  Level Washington Center
Mon 07:37:16 AM 35.9447 -76.4078 19° North 467 537 29,000  Level Washington Center
Mon 07:38:16 AM 36.0700 -76.3578 18° North 467 537 29,000  Level Washington Center
Mon 07:39:18 AM 36.1956 -76.3025 20° North 467 537 29,000  Level Washington Center
Mon 07:40:16 AM 36.3211 -76.2467 20° North 467 537 29,000  Level Washington Center
Mon 07:41:17 AM 36.4467 -76.1911 20° North 467 537 29,000  Level Washington Center
Mon 07:42:17 AM 36.5719 -76.1378 19° North 467 537 29,000  Level Washington Center
Mon 07:43:17 AM 36.6933 -76.0842 19° North 467 537 29,000  Level Washington Center
Mon 07:44:16 AM 36.8186 -76.0253 21° North 467 537 29,000  Level Washington Center
Mon 07:45:16 AM 36.9419 -75.9686 20° North 467 537 29,000  Level Washington Center
Mon 07:46:18 AM 37.0611 -75.9197 18° North 478 550 29,000  Level Washington Center
Mon 07:47:16 AM 37.1842 -75.8656 19° North 478 550 29,000 -454 Level Washington Center
Mon 07:48:17 AM 37.3094 -75.8061 21° North 478 550 28,100 -984 Descending Washington Center
Mon 07:49:18 AM 37.4306 -75.7436 22° Northeast 471 542 27,000 -1,119 Descending Washington Center
Mon 07:50:15 AM 37.5494 -75.6808 23° Northeast 466 536 25,900 -1,008 Descending Washington Center
Mon 07:51:17 AM 37.6664 -75.6206 22° Northeast 460 529 25,000 -439 Descending Washington Center
Mon 07:52:18 AM 37.7831 -75.5603 22° Northeast 452 520 25,000  Level Washington Center
Mon 07:53:15 AM 37.8978 -75.4997 23° Northeast 452 520 25,000 -458 Level Washington Center
Mon 07:54:16 AM 38.0144 -75.4364 23° Northeast 452 520 24,100 -878 Descending Washington Center
Mon 07:55:18 AM 38.1269 -75.3700 25° Northeast 452 520 23,200 -934 Descending Washington Center
Mon 07:56:18 AM 38.2417 -75.3167 20° North 447 514 22,200 -1,525 Descending Washington Center
Mon 07:57:16 AM 38.3539 -75.2503 25° Northeast 436 502 20,200 -1,900 Descending Washington Center
Mon 07:58:18 AM 38.4603 -75.1939 23° Northeast 431 496 18,400 -1,650 Descending Washington Center
Mon 07:59:16 AM 38.5622 -75.1378 23° Northeast 408 470 16,900 -1,729 Descending Washington Center
Mon 08:00:16 AM 38.6578 -75.0839 24° Northeast 387 445 15,000 -984 Descending Washington Center
Mon 08:01:18 AM 38.7536 -75.0433 18° North 374 430 14,900 -50 Descending Washington Center
Mon 08:02:16 AM 38.8536 -75.0344 North 361 415 14,900 -303 Level Washington Center
Mon 08:03:17 AM 38.9514 -75.0258 North 355 409 14,300 -992 Descending Washington Center
Mon 08:04:17 AM 39.0517 -75.0197 North 355 409 12,900 -1,298 Descending Washington Center
Mon 08:06:08 AM 39.2500 -75.0000 North 349 402 10,600 -1,116 Descending Philadelphia TRACON
Mon 08:07:09 AM 39.3333 -75.0000 360° North 302 348 9,700 -750 Descending Philadelphia TRACON
Mon 08:08:08 AM 39.4167 -74.9833 North 301 346 9,100 -857 Descending Philadelphia TRACON
Mon 08:09:08 AM 39.5000 -74.9667 North 300 345 8,000 -1,400 Descending Philadelphia TRACON
Mon 08:10:08 AM 39.5500 -75.0333 314° West 262 302 6,300 -942 Descending Philadelphia TRACON
Mon 08:11:09 AM 39.5167 -75.1167 243° Southwest 226 260 6,100 -99 Descending Philadelphia TRACON
Mon 08:12:09 AM 39.5167 -75.2000 270° West 232 267 6,100  Level Philadelphia TRACON
Mon 08:13:09 AM 39.5500 -75.2667 303° West 228 262 6,100  Level Philadelphia TRACON
Mon 08:14:09 AM 39.6000 -75.3167 322° Northwest 250 288 6,100 -50 Level Philadelphia TRACON
Mon 08:15:09 AM 39.6667 -75.3500 339° North 248 285 6,000  Descending Philadelphia TRACON
Mon 08:16:10 AM 39.7333 -75.3833 339° North 221 254 6,100  Climbing Philadelphia TRACON
Mon 08:17:09 AM 39.7167 -75.4500 252° West 176 203 6,000 -454 Descending Philadelphia TRACON
Mon 08:18:09 AM 39.7167 -75.5000 270° West 174 200 5,200 -450 Descending Philadelphia TRACON
Mon 08:19:09 AM 39.7000 -75.5667 252° West 174 200 5,100 -50 Descending Philadelphia TRACON
Mon 08:20:09 AM 39.6833 -75.6333 252° West 174 200 5,100 -400 Level Philadelphia TRACON
Mon 08:21:09 AM 39.7333 -75.6500 346° North 205 236 4,300 -800 Descending Philadelphia TRACON
Mon 08:22:09 AM 39.7833 -75.6500 360° North 195 224 3,500 -600 Descending Philadelphia TRACON
Mon 08:23:09 AM 39.8000 -75.6000 67° East 170 196 3,100 -200 Descending Philadelphia TRACON
Mon 08:24:09 AM 39.8167 -75.5333 72° East 172 198 3,100 -50 Level Philadelphia TRACON
Mon 08:25:09 AM 39.8167 -75.4667 90° East 170 196 3,000 -450 Descending Philadelphia TRACON
Mon 08:26:09 AM 39.8333 -75.4167 67° East 172 198 2,200 -800 Descending Philadelphia TRACON

Login

Don't have an account? Register now (free) for customized features, flight alerts, and more!